Acushnet, MA

9:14 AM EST on January 25, 2015 (GMT -0500)
Pine Hill Acres | Change Station
CLOSE
Current Station
Personal Weather Station
Location: New Bedford, MA
Elevation: 99 ft
Nearby Weather Stations
Active Advisory: Blizzard Watch

Elev 99 ft 41.71 °N, 70.95 °W | Updated 1 second ago

Partly Cloudy
Partly Cloudy
33.2 °F
Feels Like 33 °F
N
2.0
Wind Variable Wind from West
Gusts 4.0 mph

Today
High -- | Low -- °F
--% Chance of Precip.
Yesterday
High -- | Low -- °F
Precip. -- in
7:02 AM 4:50 PM
Waxing Crescent, 32% visible
Pressure 29.59 in
Visibility 10.0 miles
Clouds Overcast 4900 ft
Windchill 33 °F
Dew Point 30 °F
Humidity 88%
Rainfall 0.00 in
Snow Depth Not available.
UV 0 out of 12
Pollen .10 out of 12
Air Quality Not available.
Flu Activity Not available.
METAR KEWB 251353Z 25010KT 10SM OVC049 01/M02 A2959

More Conditions Fewer Conditions

Pressure 29.59 in
Visibility 10.0 miles
Clouds Overcast 4900 ft
Windchill 33 °F
Dew Point 30 °F
Humidity 88%
Rainfall 0.00 in
Snow Depth Not available.
UV 0 out of 12
Pollen .10 out of 12
Air Quality Not available.
Flu Activity Not available.
METAR KEWB 251353Z 25010KT 10SM OVC049 01/M02 A2959

More Conditions Fewer Conditions

10-Day Weather Forecast

Almanac

Astronomy

Jan. 25, 2015 Rise Set
Actual Time
Civil Twilight
Nautical Twilight
Astronomical Twilight
Moon
Length of Visible Light
Length of Day
Tomorrow will be .
, % of the Moon is Illuminated

Today's Extremes

State Highs State Lows

Community

WunderPhotos

Upload Photos

1,789,893 photos uploaded!

WunderBlogs® & News

Nearby

Air Quality

  Air Quality AQ Index Pollutant
Not available.

Snow Depth

Station Depth Elevation

Earthquake Activity

City Distance Mag. Time & Date
Minimum magnitude displayed is 2.5.

Coastal Water Temperatures

Place Temperature

Nearby Weather Stations